createdAt,value
2023-07-27T00:00:56.224Z,45.17
2023-07-27T00:03:24.873Z,45.17
2023-07-27T00:05:54.712Z,45.21
2023-07-27T00:08:23.258Z,45.28
2023-07-27T00:10:51.717Z,45.41
2023-07-27T00:13:20.163Z,45.36
2023-07-27T00:15:48.651Z,45.25
2023-07-27T00:18:17.105Z,45.37
2023-07-27T00:20:45.647Z,45.36
2023-07-27T00:23:15.533Z,45.21
2023-07-27T00:25:43.987Z,45.25
2023-07-27T00:28:12.511Z,45.38
2023-07-27T00:30:41.016Z,45.42
2023-07-27T00:33:09.548Z,45.36
2023-07-27T00:35:38.022Z,45.32
2023-07-27T00:38:06.487Z,45.31
2023-07-27T00:40:36.357Z,45.33
2023-07-27T00:43:04.856Z,45.41
2023-07-27T00:45:33.449Z,45.36
2023-07-27T00:48:02.128Z,45.24
2023-07-27T00:50:30.859Z,45.28
2023-07-27T00:52:59.888Z,45.43
2023-07-27T00:55:28.582Z,45.42
2023-07-27T00:57:59.244Z,45.17
2023-07-27T01:00:28.125Z,45.36
2023-07-27T01:02:56.954Z,45.31
2023-07-27T01:05:25.944Z,45.45
2023-07-27T01:07:54.425Z,45.45
2023-07-27T01:10:31.314Z,45.50
2023-07-27T01:13:10.145Z,45.62
2023-07-27T01:15:46.057Z,45.70
2023-07-27T01:18:25.098Z,45.53
2023-07-27T01:21:02.982Z,45.58
2023-07-27T01:24:20.725Z,45.63
2023-07-27T01:27:25.500Z,45.81
2023-07-27T01:30:50.676Z,45.88
2023-07-27T01:33:25.201Z,45.95
2023-07-27T01:36:13.342Z,45.93
2023-07-27T01:38:46.382Z,45.78
2023-07-27T01:41:17.599Z,45.81
2023-07-27T01:43:46.725Z,45.81
2023-07-27T01:46:17.731Z,45.82
2023-07-27T01:48:48.557Z,45.96
2023-07-27T01:51:18.106Z,46.14
2023-07-27T01:53:48.664Z,45.96
2023-07-27T01:56:17.832Z,45.86
2023-07-27T01:58:47.540Z,45.99
2023-07-27T02:01:17.720Z,45.91
2023-07-27T02:03:46.299Z,45.86
2023-07-27T02:06:14.801Z,45.76
2023-07-27T02:08:43.476Z,45.89
2023-07-27T02:11:14.031Z,45.80
2023-07-27T02:13:48.477Z,45.88
2023-07-27T02:16:29.719Z,45.96
2023-07-27T02:19:00.591Z,45.81
2023-07-27T02:21:31.178Z,45.98
2023-07-27T02:24:01.366Z,45.94
2023-07-27T02:26:31.147Z,45.95
2023-07-27T02:29:00.663Z,46.09
2023-07-27T02:31:30.734Z,45.88
2023-07-27T02:33:59.277Z,45.89
2023-07-27T02:36:27.816Z,45.95
2023-07-27T02:38:56.353Z,45.93
2023-07-27T02:41:25.841Z,45.99
2023-07-27T02:43:54.499Z,45.82
2023-07-27T02:46:22.941Z,45.87
2023-07-27T02:48:54.703Z,46.04
2023-07-27T02:51:23.334Z,45.86
2023-07-27T02:53:51.805Z,45.87
2023-07-27T02:56:20.304Z,45.93
2023-07-27T02:58:48.830Z,45.88
2023-07-27T03:01:17.352Z,45.83
2023-07-27T03:03:45.819Z,45.92
2023-07-27T03:06:15.663Z,45.98
2023-07-27T03:08:44.147Z,45.96
2023-07-27T03:11:12.629Z,46.05
2023-07-27T03:13:44.060Z,46.01
2023-07-27T03:16:12.517Z,46.11
2023-07-27T03:18:40.923Z,46.18
2023-07-27T03:21:09.449Z,46.20
2023-07-27T03:23:39.457Z,46.17
2023-07-27T03:26:12.591Z,45.98
2023-07-27T03:28:43.590Z,46.04
2023-07-27T03:31:19.302Z,46.00
2023-07-27T03:33:48.184Z,45.97
2023-07-27T03:36:18.347Z,45.96
2023-07-27T03:38:48.789Z,46.03
2023-07-27T03:41:17.649Z,45.81
2023-07-27T03:43:46.100Z,45.87
2023-07-27T03:46:14.662Z,45.88
2023-07-27T03:48:43.339Z,45.80
2023-07-27T03:51:11.864Z,45.83
2023-07-27T03:53:40.743Z,45.93
2023-07-27T03:56:11.463Z,45.85
2023-07-27T03:58:39.960Z,45.92
2023-07-27T04:01:08.849Z,45.81
2023-07-27T04:03:37.751Z,45.87
2023-07-27T04:06:06.329Z,45.79
2023-07-27T04:08:34.805Z,45.81
2023-07-27T04:11:03.317Z,45.79
2023-07-27T04:13:33.200Z,45.81
2023-07-27T04:16:01.901Z,45.75
2023-07-27T04:18:30.456Z,45.81
2023-07-27T04:20:58.988Z,45.74
2023-07-27T04:23:27.894Z,45.71
2023-07-27T04:25:56.405Z,45.60
2023-07-27T04:28:25.003Z,45.48
2023-07-27T04:30:54.865Z,45.40
2023-07-27T04:33:23.457Z,45.44
2023-07-27T04:35:51.885Z,45.29
2023-07-27T04:38:20.379Z,45.29
2023-07-27T04:40:48.852Z,45.18
2023-07-27T04:43:18.570Z,45.14
2023-07-27T04:45:48.461Z,44.83
2023-07-27T04:48:18.418Z,44.82
2023-07-27T04:50:46.863Z,44.91
2023-07-27T04:53:15.331Z,44.71
2023-07-27T04:55:43.784Z,44.76
2023-07-27T04:58:12.449Z,44.37
2023-07-27T05:00:40.919Z,44.37
2023-07-27T05:03:09.486Z,43.87
2023-07-27T05:05:45.175Z,43.54
2023-07-27T05:08:13.662Z,43.30
2023-07-27T05:10:42.306Z,42.78
2023-07-27T05:13:11.078Z,42.54
2023-07-27T05:15:43.000Z,42.46
2023-07-27T05:18:11.592Z,41.92
2023-07-27T05:20:41.436Z,41.97
2023-07-27T05:23:09.885Z,41.64
2023-07-27T05:25:38.473Z,41.12
2023-07-27T05:28:06.976Z,40.77
2023-07-27T05:30:35.823Z,40.44
2023-07-27T05:33:04.380Z,40.57
2023-07-27T05:35:32.868Z,40.83
2023-07-27T05:38:02.822Z,40.43
2023-07-27T05:40:31.418Z,40.38
2023-07-27T05:43:00.154Z,40.12
2023-07-27T05:45:28.695Z,40.42
2023-07-27T05:47:57.224Z,40.13
2023-07-27T05:50:26.775Z,39.82
2023-07-27T05:52:55.348Z,39.45
2023-07-27T05:55:25.214Z,39.64
2023-07-27T05:57:53.741Z,39.56
2023-07-27T06:00:22.828Z,39.33
2023-07-27T06:02:51.378Z,39.30
2023-07-27T06:05:19.892Z,39.04
2023-07-27T06:07:48.418Z,38.72
2023-07-27T06:10:17.922Z,38.62
2023-07-27T06:12:47.794Z,38.64
2023-07-27T06:15:16.408Z,38.52
2023-07-27T06:17:44.909Z,38.12
2023-07-27T06:20:13.856Z,38.14
2023-07-27T06:22:42.409Z,37.82
2023-07-27T06:25:11.488Z,37.94
2023-07-27T06:27:40.100Z,37.62
2023-07-27T06:30:13.594Z,37.62
2023-07-27T06:32:42.452Z,37.48
2023-07-27T06:35:11.541Z,37.24
2023-07-27T06:37:40.108Z,37.09
2023-07-27T06:40:10.410Z,36.81
2023-07-27T06:42:39.114Z,36.22
2023-07-27T06:45:10.392Z,36.03
2023-07-27T06:47:39.427Z,35.32
2023-07-27T06:50:09.900Z,35.25
2023-07-27T06:52:38.951Z,35.50
2023-07-27T06:55:08.710Z,35.43
2023-07-27T06:57:37.314Z,35.00
2023-07-27T07:00:09.161Z,35.05
2023-07-27T07:02:39.118Z,34.52
2023-07-27T07:05:09.166Z,34.82
2023-07-27T07:07:39.894Z,34.94
2023-07-27T07:10:09.873Z,34.90
2023-07-27T07:12:39.053Z,34.77
2023-07-27T07:15:09.648Z,34.68
2023-07-27T07:17:39.680Z,34.28
2023-07-27T07:20:10.003Z,34.44
2023-07-27T07:22:38.671Z,34.42
2023-07-27T07:25:08.737Z,34.30
2023-07-27T07:27:37.213Z,32.90
2023-07-27T07:30:07.455Z,33.43
2023-07-27T07:32:36.168Z,33.44
2023-07-27T07:35:08.063Z,32.69
2023-07-27T07:37:37.708Z,32.98
2023-07-27T07:40:08.278Z,33.08
2023-07-27T07:42:36.788Z,32.55
2023-07-27T07:45:06.213Z,32.14
2023-07-27T07:47:34.874Z,31.29
2023-07-27T07:50:03.830Z,31.09
2023-07-27T07:52:33.858Z,30.87
2023-07-27T07:55:02.593Z,30.45
2023-07-27T07:57:31.326Z,29.87
2023-07-27T07:59:59.844Z,30.61
2023-07-27T08:02:28.878Z,30.79
2023-07-27T08:04:57.405Z,30.85
2023-07-27T08:07:26.136Z,31.01
2023-07-27T08:09:55.984Z,29.84
2023-07-27T08:12:24.498Z,29.68
2023-07-27T08:14:53.336Z,29.72
2023-07-27T08:17:21.847Z,29.36
2023-07-27T08:19:50.818Z,29.38
2023-07-27T08:22:19.374Z,29.06
2023-07-27T08:24:47.894Z,29.79
2023-07-27T08:27:19.663Z,29.71
2023-07-27T08:29:48.241Z,29.97
2023-07-27T08:32:16.786Z,29.68
2023-07-27T08:34:45.200Z,28.96
2023-07-27T08:37:13.638Z,28.89
2023-07-27T08:39:42.169Z,29.09
2023-07-27T08:42:11.362Z,28.62
2023-07-27T08:44:42.079Z,28.97
2023-07-27T08:47:10.731Z,29.09
2023-07-27T08:49:39.886Z,28.55
2023-07-27T08:52:10.220Z,28.65
2023-07-27T08:54:38.748Z,28.95
2023-07-27T08:57:07.825Z,28.81
2023-07-27T08:59:36.989Z,29.08
2023-07-27T09:02:07.497Z,28.34
2023-07-27T09:04:36.054Z,28.08
2023-07-27T09:07:09.046Z,28.40
2023-07-27T09:09:37.620Z,28.32
2023-07-27T09:12:08.165Z,28.17
2023-07-27T09:14:40.880Z,28.70
2023-07-27T09:17:11.129Z,27.99
2023-07-27T09:19:41.248Z,27.56
2023-07-27T09:22:10.306Z,27.34
2023-07-27T09:24:39.024Z,26.88
2023-07-27T09:27:13.231Z,26.85
2023-07-27T09:29:43.297Z,26.66
2023-07-27T09:32:13.388Z,26.77
2023-07-27T09:34:42.191Z,26.93
2023-07-27T09:37:11.293Z,26.88
2023-07-27T09:39:44.528Z,26.89
2023-07-27T09:42:15.957Z,26.78
2023-07-27T09:44:54.080Z,27.21
2023-07-27T09:47:25.141Z,26.84
2023-07-27T09:49:55.131Z,26.32
2023-07-27T09:52:25.654Z,26.29
2023-07-27T09:54:56.360Z,26.87
2023-07-27T09:57:26.051Z,26.41
2023-07-27T09:59:55.196Z,26.37
2023-07-27T10:02:31.912Z,26.10
2023-07-27T10:05:01.220Z,25.96
2023-07-27T10:07:37.425Z,26.06
2023-07-27T10:10:37.823Z,26.14
2023-07-27T10:13:14.772Z,25.59
2023-07-27T10:15:45.363Z,26.12
2023-07-27T10:18:22.985Z,25.89
2023-07-27T10:20:51.860Z,25.81
2023-07-27T10:23:27.865Z,25.95
2023-07-27T10:26:05.731Z,24.83
2023-07-27T10:28:39.156Z,24.73
2023-07-27T10:31:27.220Z,25.36
2023-07-27T10:34:07.556Z,25.44
2023-07-27T10:36:58.363Z,25.54
2023-07-27T10:39:30.433Z,24.83
2023-07-27T10:42:04.845Z,24.86
2023-07-27T10:44:51.389Z,24.90
2023-07-27T10:47:25.168Z,25.00
2023-07-27T10:49:57.813Z,25.08
2023-07-27T10:52:28.718Z,24.40
2023-07-27T10:54:59.366Z,24.44
2023-07-27T10:57:30.754Z,24.23
2023-07-27T10:59:59.617Z,23.40
2023-07-27T11:02:31.109Z,21.37
2023-07-27T11:05:04.765Z,21.23
2023-07-27T11:07:35.815Z,21.65
2023-07-27T11:10:08.111Z,21.37
2023-07-27T11:12:47.733Z,21.75
2023-07-27T11:15:19.249Z,20.74
2023-07-27T11:17:48.112Z,20.05
2023-07-27T11:20:24.309Z,19.69
2023-07-27T11:22:53.898Z,18.33
2023-07-27T11:25:23.199Z,17.30
2023-07-27T11:27:52.783Z,17.35
2023-07-27T11:30:23.491Z,16.42
2023-07-27T11:33:02.384Z,16.48
2023-07-27T11:35:32.601Z,14.77
2023-07-27T11:38:02.421Z,14.89
2023-07-27T11:40:32.254Z,15.07
2023-07-27T11:43:04.765Z,14.75
2023-07-27T11:45:34.057Z,13.40
2023-07-27T11:48:02.787Z,13.19
2023-07-27T11:50:36.654Z,13.59
2023-07-27T11:53:09.372Z,13.02
2023-07-27T11:55:38.522Z,14.23
2023-07-27T11:58:09.976Z,14.08
2023-07-27T12:00:39.508Z,13.52
2023-07-27T12:03:20.721Z,13.44
2023-07-27T12:05:56.371Z,12.92
2023-07-27T12:23:40.446Z,10.89
2023-07-27T12:28:42.918Z,9.64
2023-07-27T12:33:43.303Z,9.87
2023-07-27T12:36:13.266Z,9.70
2023-07-27T12:41:13.127Z,10.12
2023-07-27T12:43:41.985Z,10.15
2023-07-27T12:46:12.370Z,10.10
2023-07-27T12:48:40.927Z,9.83
2023-07-27T12:51:09.763Z,10.11
2023-07-27T12:53:41.720Z,9.52
2023-07-27T12:56:13.162Z,9.10
2023-07-27T12:58:41.699Z,9.60
2023-07-27T13:01:10.347Z,9.78
2023-07-27T13:03:38.999Z,9.99
2023-07-27T13:06:07.617Z,10.04
2023-07-27T13:08:36.112Z,9.58
2023-07-27T13:11:06.010Z,9.39
2023-07-27T13:13:34.489Z,9.73
2023-07-27T13:16:03.261Z,9.60
2023-07-27T13:18:33.758Z,9.42
2023-07-27T13:21:02.776Z,9.13
2023-07-27T13:23:31.471Z,8.86
2023-07-27T13:25:59.959Z,8.81
2023-07-27T13:28:29.918Z,8.67
2023-07-27T13:30:58.402Z,7.90
2023-07-27T13:33:27.032Z,7.77
2023-07-27T13:35:55.555Z,7.61
2023-07-27T13:38:24.263Z,7.47
2023-07-27T13:40:52.825Z,7.28
2023-07-27T13:43:21.362Z,6.95
2023-07-27T13:45:51.905Z,6.98
2023-07-27T13:48:20.565Z,6.92
2023-07-27T13:50:49.164Z,6.91
2023-07-27T13:53:17.781Z,7.03
2023-07-27T13:55:49.331Z,6.74
2023-07-27T13:58:18.825Z,6.38
2023-07-27T14:00:50.980Z,6.22
2023-07-27T14:03:19.709Z,5.94
2023-07-27T14:05:48.499Z,6.24
2023-07-27T14:08:17.410Z,5.45
2023-07-27T14:10:45.925Z,5.18
2023-07-27T14:13:14.480Z,5.58
2023-07-27T14:15:43.278Z,5.93
2023-07-27T14:18:13.305Z,6.29
2023-07-27T14:20:41.828Z,6.50
2023-07-27T14:23:10.492Z,6.78
2023-07-27T14:25:39.187Z,7.34
2023-07-27T14:28:08.068Z,7.13
2023-07-27T14:30:36.900Z,7.94
2023-07-27T14:33:05.799Z,7.41
2023-07-27T14:35:35.838Z,8.12
2023-07-27T14:38:04.388Z,7.75
2023-07-27T14:43:04.240Z,8.21
2023-07-27T14:45:37.109Z,8.74
2023-07-27T14:48:06.183Z,8.50
2023-07-27T14:50:38.983Z,8.26
2023-07-27T14:53:08.158Z,8.31
2023-07-27T14:55:36.711Z,8.84
2023-07-27T14:58:05.257Z,8.41
2023-07-27T15:00:36.377Z,8.30
2023-07-27T15:03:06.395Z,8.66
2023-07-27T15:05:36.745Z,8.09
2023-07-27T15:08:06.392Z,8.04
2023-07-27T15:10:37.936Z,8.31
2023-07-27T15:13:08.354Z,8.53
2023-07-27T15:15:37.930Z,8.45
2023-07-27T15:18:07.399Z,7.83
2023-07-27T15:20:42.254Z,7.94
2023-07-27T15:23:11.363Z,8.25
2023-07-27T15:25:39.930Z,8.32
2023-07-27T15:28:08.898Z,8.20
2023-07-27T15:30:37.432Z,8.43
2023-07-27T15:33:06.033Z,8.36
2023-07-27T15:35:35.652Z,8.98
2023-07-27T15:38:05.892Z,9.06
2023-07-27T15:40:34.527Z,9.43
2023-07-27T15:43:03.428Z,9.78
2023-07-27T15:45:32.086Z,9.79
2023-07-27T15:48:00.768Z,10.02
2023-07-27T15:50:29.412Z,10.88
2023-07-27T15:53:00.775Z,10.61
2023-07-27T15:55:30.931Z,11.17
2023-07-27T15:57:59.482Z,12.00
2023-07-27T16:00:28.437Z,12.11
2023-07-27T16:02:57.191Z,12.05
2023-07-27T16:05:27.626Z,12.32
2023-07-27T16:07:57.282Z,12.75
2023-07-27T16:10:26.801Z,13.25
2023-07-27T16:12:56.830Z,13.59
2023-07-27T16:15:27.380Z,13.80
2023-07-27T16:17:56.248Z,14.06
2023-07-27T16:20:24.916Z,14.19
2023-07-27T16:22:54.113Z,14.92
2023-07-27T16:25:24.461Z,14.68
2023-07-27T16:27:56.022Z,15.17
2023-07-27T16:30:24.676Z,15.23
2023-07-27T16:32:53.543Z,15.48
2023-07-27T16:35:22.235Z,15.78
2023-07-27T16:37:50.804Z,16.13
2023-07-27T16:40:19.947Z,16.27
2023-07-27T16:42:48.571Z,16.40
2023-07-27T16:45:20.894Z,17.25
2023-07-27T16:47:49.649Z,16.87
2023-07-27T16:50:18.369Z,17.68
2023-07-27T16:52:47.022Z,17.84
2023-07-27T16:55:15.685Z,17.97
2023-07-27T16:57:44.242Z,17.83
2023-07-27T17:00:14.712Z,18.18
2023-07-27T17:02:44.959Z,18.17
2023-07-27T17:05:13.843Z,18.36
2023-07-27T17:07:42.662Z,18.37
2023-07-27T17:10:12.845Z,18.78
2023-07-27T17:12:41.933Z,18.89
2023-07-27T17:15:12.462Z,19.32
2023-07-27T17:17:42.614Z,19.14
2023-07-27T17:20:14.371Z,19.53
2023-07-27T17:22:43.493Z,19.48
2023-07-27T17:25:13.406Z,19.43
2023-07-27T17:27:44.569Z,20.10
2023-07-27T17:30:14.690Z,19.86
2023-07-27T17:32:44.308Z,20.00
2023-07-27T17:35:15.192Z,20.44
2023-07-27T17:37:45.570Z,20.40
2023-07-27T17:40:18.305Z,20.57
2023-07-27T17:42:46.977Z,20.62
2023-07-27T17:45:16.204Z,20.69
2023-07-27T17:47:46.446Z,20.84
2023-07-27T17:50:16.835Z,21.03
2023-07-27T17:52:45.836Z,21.12
2023-07-27T17:55:16.026Z,21.22
2023-07-27T17:57:50.309Z,21.44
2023-07-27T18:00:20.999Z,21.59
2023-07-27T18:02:53.301Z,21.68
2023-07-27T18:05:25.323Z,21.83
2023-07-27T18:07:56.419Z,21.89
2023-07-27T18:10:25.539Z,21.82
2023-07-27T18:12:55.286Z,21.96
2023-07-27T18:15:25.285Z,22.02
2023-07-27T18:17:55.564Z,22.31
2023-07-27T18:20:26.099Z,22.56
2023-07-27T18:22:56.469Z,22.53
2023-07-27T18:25:27.445Z,22.65
2023-07-27T18:27:57.014Z,22.47
2023-07-27T18:30:27.019Z,22.72
2023-07-27T18:32:56.506Z,22.72
2023-07-27T18:35:30.153Z,22.83
2023-07-27T18:38:00.223Z,23.45
2023-07-27T18:40:29.552Z,23.13
2023-07-27T18:43:00.241Z,23.19
2023-07-27T18:45:49.433Z,23.24
2023-07-27T18:48:20.692Z,23.74
2023-07-27T18:50:58.242Z,23.39
2023-07-27T18:53:28.076Z,23.80
2023-07-27T18:55:58.957Z,23.59
2023-07-27T18:58:28.065Z,23.81
2023-07-27T19:00:59.370Z,23.99
2023-07-27T19:03:30.645Z,23.54
2023-07-27T19:06:05.581Z,23.75
2023-07-27T19:08:35.474Z,23.60
2023-07-27T19:11:06.109Z,23.60
2023-07-27T19:13:35.386Z,24.03
2023-07-27T19:16:06.933Z,24.01
2023-07-27T19:18:37.413Z,24.29
2023-07-27T19:21:16.693Z,24.21
2023-07-27T19:23:47.132Z,24.17
2023-07-27T19:26:22.406Z,24.24
2023-07-27T19:28:53.017Z,24.10
2023-07-27T19:31:24.790Z,24.40
2023-07-27T19:33:54.697Z,24.28
2023-07-27T19:36:28.348Z,24.83
2023-07-27T19:39:00.159Z,24.75
2023-07-27T19:41:30.662Z,24.33
2023-07-27T19:44:00.906Z,24.88
2023-07-27T19:46:30.896Z,24.91
2023-07-27T19:49:00.482Z,24.84
2023-07-27T19:51:33.629Z,24.90
2023-07-27T19:54:05.025Z,24.88
2023-07-27T19:56:38.420Z,24.59
2023-07-27T19:59:08.789Z,24.89
2023-07-27T20:01:38.676Z,25.03
2023-07-27T20:04:07.945Z,25.01
2023-07-27T20:06:41.269Z,25.12
2023-07-27T20:09:11.241Z,25.19
2023-07-27T20:11:40.856Z,25.16
2023-07-27T20:14:25.237Z,24.82
2023-07-27T20:17:03.607Z,25.02
2023-07-27T20:19:35.015Z,25.14
2023-07-27T20:22:06.368Z,24.97
2023-07-27T20:24:35.981Z,25.12
2023-07-27T20:27:06.832Z,25.52
2023-07-27T20:29:35.850Z,25.28
2023-07-27T20:32:05.412Z,25.36
2023-07-27T20:34:36.149Z,25.73
2023-07-27T20:37:07.002Z,25.36
2023-07-27T20:39:38.396Z,25.37
2023-07-27T20:42:08.348Z,25.86
2023-07-27T20:44:38.393Z,25.58
2023-07-27T20:47:09.018Z,26.03
2023-07-27T20:49:38.039Z,26.29
2023-07-27T20:52:10.784Z,26.01
2023-07-27T20:54:40.507Z,25.73
2023-07-27T20:57:10.527Z,25.94
2023-07-27T20:59:41.096Z,26.01
2023-07-27T21:02:09.839Z,26.46
2023-07-27T21:04:38.423Z,26.45
2023-07-27T21:07:08.756Z,25.97
2023-07-27T21:09:37.221Z,25.39
2023-07-27T21:12:06.724Z,24.87
2023-07-27T21:14:36.259Z,25.52
2023-07-27T21:17:04.971Z,25.30
2023-07-27T21:19:34.334Z,25.33
2023-07-27T21:22:02.820Z,25.54
2023-07-27T21:24:32.955Z,25.55
2023-07-27T21:27:01.467Z,25.17
2023-07-27T21:29:30.177Z,25.33
2023-07-27T21:31:58.677Z,24.88
2023-07-27T21:34:28.945Z,25.21
2023-07-27T21:36:57.465Z,25.28
2023-07-27T21:39:26.298Z,25.29
2023-07-27T21:42:00.060Z,24.97
2023-07-27T21:44:29.141Z,25.41
2023-07-27T21:46:57.793Z,25.42
2023-07-27T21:49:26.448Z,25.35
2023-07-27T21:51:55.834Z,25.64
2023-07-27T21:54:24.449Z,25.51
2023-07-27T21:56:52.970Z,25.56
2023-07-27T21:59:22.895Z,26.74
2023-07-27T22:01:51.448Z,28.21
2023-07-27T22:04:20.014Z,28.55
2023-07-27T22:06:48.469Z,27.99
2023-07-27T22:09:17.004Z,28.15
2023-07-27T22:11:45.525Z,28.70
2023-07-27T22:14:14.124Z,28.20
2023-07-27T22:16:43.962Z,28.50
2023-07-27T22:19:12.458Z,28.25
2023-07-27T22:21:40.983Z,28.34
2023-07-27T22:24:09.522Z,28.29
2023-07-27T22:26:38.017Z,28.68
2023-07-27T22:29:06.451Z,28.39
2023-07-27T22:31:35.014Z,28.39
2023-07-27T22:34:05.013Z,28.37
2023-07-27T22:36:33.772Z,28.09
2023-07-27T22:39:02.599Z,27.86
2023-07-27T22:41:32.262Z,27.88
2023-07-27T22:44:00.807Z,27.78
2023-07-27T22:46:29.613Z,27.75
2023-07-27T22:48:58.561Z,27.75
2023-07-27T22:51:28.772Z,27.72
2023-07-27T22:53:58.363Z,27.58
2023-07-27T22:56:26.919Z,27.74
2023-07-27T22:58:55.483Z,27.78
2023-07-27T23:01:23.996Z,27.91
2023-07-27T23:03:52.509Z,27.83
2023-07-27T23:06:20.962Z,27.90
2023-07-27T23:08:51.057Z,27.96
2023-07-27T23:11:19.730Z,28.00
2023-07-27T23:13:48.188Z,27.72
2023-07-27T23:16:16.701Z,27.72
2023-07-27T23:18:45.245Z,27.67
2023-07-27T23:21:13.740Z,27.83
2023-07-27T23:23:42.621Z,28.04
2023-07-27T23:26:12.514Z,28.14
2023-07-27T23:28:41.285Z,28.19
2023-07-27T23:31:09.840Z,27.75
2023-07-27T23:33:38.373Z,28.26
2023-07-27T23:36:12.329Z,28.33
2023-07-27T23:38:41.229Z,28.27
2023-07-27T23:41:11.047Z,28.52
2023-07-27T23:43:39.583Z,28.74
2023-07-27T23:46:08.168Z,28.85
2023-07-27T23:48:36.666Z,28.35
2023-07-27T23:51:05.332Z,28.67
2023-07-27T23:53:34.049Z,28.77
2023-07-27T23:56:02.641Z,29.22
2023-07-27T23:58:32.499Z,29.34
